createdAt,value
2023-03-29T00:10:33.799Z,-3.30
2023-03-29T00:13:02.854Z,-3.40
2023-03-29T00:42:38.810Z,-3.50
2023-03-29T00:45:19.122Z,-3.50
2023-03-29T00:48:17.540Z,-3.50
2023-03-29T00:51:03.478Z,-3.50
2023-03-29T00:53:35.957Z,-3.60
2023-03-29T00:56:17.554Z,-3.60
2023-03-29T00:58:55.309Z,-3.70
2023-03-29T01:01:38.213Z,-3.70
2023-03-29T01:04:18.471Z,-3.80
2023-03-29T01:06:53.226Z,-4.30
2023-03-29T01:09:24.088Z,-4.00
2023-03-29T01:11:55.425Z,-4.20
2023-03-29T01:14:37.806Z,-4.20
2023-03-29T01:17:06.634Z,-3.60
2023-03-29T01:19:47.823Z,-4.30
2023-03-29T01:22:33.806Z,-4.20
2023-03-29T01:26:00.020Z,-4.20
2023-03-29T01:28:34.347Z,-4.10
2023-03-29T01:33:39.001Z,-4.30
2023-03-29T01:36:16.640Z,-4.10
2023-03-29T01:38:55.708Z,-4.30
2023-03-29T01:41:31.974Z,-4.40
2023-03-29T01:44:08.255Z,-4.20
2023-03-29T01:46:52.479Z,-4.70
2023-03-29T01:49:42.328Z,-3.70
2023-03-29T01:52:21.713Z,-3.70
2023-03-29T01:54:54.977Z,-4.40
2023-03-29T01:57:25.440Z,-4.50
2023-03-29T01:59:55.968Z,-4.40
2023-03-29T02:02:27.401Z,-4.50
2023-03-29T02:07:30.891Z,-4.60
2023-03-29T02:09:58.898Z,-4.50
2023-03-29T02:14:55.154Z,-4.50
2023-03-29T02:17:25.514Z,-4.40
2023-03-29T02:19:58.220Z,-4.40
2023-03-29T02:22:36.841Z,-4.40
2023-03-29T02:25:09.046Z,-4.10
2023-03-29T02:27:38.127Z,-4.70
2023-03-29T02:30:10.984Z,-4.60
2023-03-29T02:35:14.223Z,-4.90
2023-03-29T02:37:47.840Z,-4.80
2023-03-29T02:40:17.296Z,-4.80
2023-03-29T02:42:46.377Z,-4.80
2023-03-29T02:45:17.275Z,-4.70
2023-03-29T02:47:51.971Z,-4.90
2023-03-29T02:50:20.477Z,-4.80
2023-03-29T02:52:55.251Z,-4.80
2023-03-29T02:55:25.247Z,-4.90
2023-03-29T03:20:13.812Z,-5.10
2023-03-29T03:22:45.722Z,-5.00
2023-03-29T03:30:09.983Z,-5.30
2023-03-29T03:36:10.546Z,-5.30
2023-03-29T03:41:07.363Z,-5.30
2023-03-29T04:27:49.347Z,-5.50
2023-03-29T05:40:10.275Z,-4.90
2023-03-29T05:57:52.541Z,-4.10
2023-03-29T06:05:49.656Z,-4.20
2023-03-29T06:11:06.706Z,-2.40
2023-03-29T06:36:35.008Z,3.30
2023-03-29T06:39:08.698Z,3.60
2023-03-29T06:42:05.236Z,4.50
2023-03-29T06:44:58.141Z,5.00
2023-03-29T06:47:30.883Z,5.80
2023-03-29T06:55:08.141Z,5.60
2023-03-29T06:57:36.923Z,5.90
2023-03-29T07:00:18.427Z,6.00
2023-03-29T07:03:20.566Z,6.10
2023-03-29T07:05:52.276Z,6.60
2023-03-29T07:08:22.562Z,7.50
2023-03-29T07:11:15.641Z,9.50
2023-03-29T07:13:52.796Z,8.90
2023-03-29T07:16:21.900Z,8.70
2023-03-29T07:19:01.606Z,8.60
2023-03-29T07:27:00.086Z,8.10
2023-03-29T07:29:32.243Z,8.00
2023-03-29T07:32:00.444Z,9.60
2023-03-29T07:37:26.180Z,10.70
2023-03-29T07:39:54.386Z,10.90
2023-03-29T07:42:45.672Z,11.40
2023-03-29T07:45:17.605Z,11.60
2023-03-29T07:47:59.348Z,12.00
2023-03-29T07:50:32.724Z,11.80
2023-03-29T07:53:03.575Z,11.20
2023-03-29T07:55:32.896Z,11.80
2023-03-29T07:58:26.546Z,11.80
2023-03-29T08:00:54.097Z,12.40
2023-03-29T08:03:42.649Z,12.10
2023-03-29T08:06:10.962Z,11.80
2023-03-29T08:08:38.427Z,11.50
2023-03-29T08:11:11.359Z,10.90
2023-03-29T08:13:53.582Z,10.40
2023-03-29T08:16:26.903Z,12.90
2023-03-29T08:19:05.013Z,10.60
2023-03-29T08:21:51.751Z,11.20
2023-03-29T08:24:21.426Z,11.80
2023-03-29T08:26:53.524Z,12.50
2023-03-29T08:29:21.273Z,12.60
2023-03-29T08:31:49.462Z,13.60
2023-03-29T08:34:17.070Z,16.10
2023-03-29T08:37:03.373Z,14.60
2023-03-29T08:39:41.235Z,14.70
2023-03-29T08:42:34.001Z,15.20
2023-03-29T08:45:10.273Z,14.90
2023-03-29T08:47:59.342Z,14.90
2023-03-29T08:50:41.127Z,15.30
2023-03-29T08:53:18.207Z,16.90
2023-03-29T08:56:10.344Z,18.20
2023-03-29T09:01:36.313Z,17.00
2023-03-29T09:04:14.994Z,17.00
2023-03-29T09:07:03.634Z,16.40
2023-03-29T09:09:38.826Z,16.40
2023-03-29T09:12:38.322Z,16.00
2023-03-29T09:15:43.335Z,15.80
2023-03-29T09:18:55.891Z,16.20
2023-03-29T09:21:52.044Z,15.10
2023-03-29T09:24:33.693Z,15.10
2023-03-29T09:27:27.596Z,14.70
2023-03-29T09:30:13.551Z,17.10
2023-03-29T09:33:08.124Z,17.10
2023-03-29T09:36:10.441Z,17.40
2023-03-29T09:38:42.779Z,17.40
2023-03-29T09:41:19.173Z,19.10
2023-03-29T09:43:48.825Z,18.10
2023-03-29T09:46:40.559Z,18.60
2023-03-29T09:49:17.515Z,18.30
2023-03-29T09:51:49.444Z,17.70
2023-03-29T09:54:18.572Z,18.00
2023-03-29T09:57:19.759Z,18.10
2023-03-29T09:59:50.367Z,18.10
2023-03-29T10:02:21.163Z,17.10
2023-03-29T10:04:58.926Z,17.70
2023-03-29T10:07:44.815Z,18.00
2023-03-29T10:10:32.595Z,18.90
2023-03-29T10:13:04.855Z,18.00
2023-03-29T10:15:32.541Z,18.30
2023-03-29T10:20:36.467Z,17.50
2023-03-29T10:23:08.182Z,17.50
2023-03-29T10:25:43.012Z,19.20
2023-03-29T10:28:17.736Z,18.80
2023-03-29T10:30:52.614Z,19.30
2023-03-29T10:33:24.141Z,19.50
2023-03-29T10:35:51.925Z,19.20
2023-03-29T10:38:22.949Z,19.40
2023-03-29T10:40:54.298Z,18.20
2023-03-29T10:43:34.912Z,17.70
2023-03-29T10:46:19.744Z,17.90
2023-03-29T10:48:55.930Z,17.20
2023-03-29T10:51:24.881Z,17.40
2023-03-29T10:53:52.348Z,18.40
2023-03-29T10:56:40.457Z,19.60
2023-03-29T10:59:11.153Z,19.00
2023-03-29T11:02:13.804Z,18.40
2023-03-29T11:05:03.759Z,18.70
2023-03-29T11:08:02.447Z,19.20
2023-03-29T11:10:41.451Z,19.80
2023-03-29T11:13:08.598Z,19.60
2023-03-29T11:18:25.371Z,19.70
2023-03-29T11:21:27.259Z,19.00
2023-03-29T11:24:22.207Z,19.20
2023-03-29T11:26:58.340Z,19.30
2023-03-29T11:29:39.521Z,18.30
2023-03-29T11:32:44.507Z,19.20
2023-03-29T11:35:36.482Z,18.90
2023-03-29T11:38:32.582Z,18.40
2023-03-29T11:41:19.963Z,18.70
2023-03-29T11:43:49.913Z,19.10
2023-03-29T11:46:25.980Z,18.60
2023-03-29T11:49:06.557Z,19.10
2023-03-29T11:51:54.708Z,20.30
2023-03-29T11:54:48.248Z,19.80
2023-03-29T11:57:38.838Z,19.40
2023-03-29T12:03:09.973Z,18.30
2023-03-29T12:05:46.277Z,18.70
2023-03-29T12:08:20.737Z,18.40
2023-03-29T12:10:56.942Z,19.40
2023-03-29T12:13:46.085Z,19.50
2023-03-29T12:16:19.608Z,18.90
2023-03-29T12:18:50.145Z,19.60
2023-03-29T12:21:23.064Z,19.10
2023-03-29T12:23:53.048Z,17.50
2023-03-29T12:26:20.770Z,17.50
2023-03-29T12:29:17.607Z,17.50
2023-03-29T12:32:06.817Z,17.00
2023-03-29T12:35:10.256Z,16.20
2023-03-29T12:38:26.059Z,15.60
2023-03-29T12:41:23.242Z,15.60
2023-03-29T12:46:34.613Z,15.50
2023-03-29T13:01:42.959Z,13.30
2023-03-29T13:04:37.513Z,14.40
2023-03-29T13:07:07.235Z,15.10
2023-03-29T13:12:39.611Z,16.10
2023-03-29T13:17:49.563Z,16.50
2023-03-29T13:20:48.099Z,15.90
2023-03-29T13:23:44.983Z,15.40
2023-03-29T13:26:34.548Z,15.00
2023-03-29T13:32:01.786Z,15.90
2023-03-29T13:35:07.803Z,15.60
2023-03-29T13:37:47.515Z,15.90
2023-03-29T13:40:30.192Z,16.60
2023-03-29T13:43:19.909Z,17.20
2023-03-29T13:45:56.730Z,15.70
2023-03-29T13:48:30.763Z,14.70
2023-03-29T13:51:21.278Z,13.50
2023-03-29T13:53:57.247Z,13.10
2023-03-29T13:56:37.514Z,12.90
2023-03-29T13:59:19.950Z,12.20
2023-03-29T14:01:54.743Z,12.60
2023-03-29T14:04:26.823Z,13.20
2023-03-29T14:06:56.446Z,12.40
2023-03-29T14:11:58.924Z,12.00
2023-03-29T14:14:29.412Z,12.10
2023-03-29T14:16:57.749Z,12.50
2023-03-29T14:19:34.548Z,12.10
2023-03-29T14:22:07.658Z,13.10
2023-03-29T14:24:48.220Z,11.90
2023-03-29T14:32:19.008Z,11.80
2023-03-29T14:47:34.789Z,11.30
2023-03-29T14:50:05.490Z,11.20
2023-03-29T14:52:34.935Z,11.10
2023-03-29T14:57:37.452Z,10.90
2023-03-29T15:00:39.808Z,11.00
2023-03-29T15:03:14.687Z,11.00
2023-03-29T15:05:48.347Z,10.90
2023-03-29T15:16:04.576Z,10.80
2023-03-29T15:18:40.725Z,10.90
2023-03-29T15:23:53.363Z,10.90
2023-03-29T15:26:34.665Z,10.90
2023-03-29T15:29:17.873Z,10.70
2023-03-29T15:31:57.777Z,10.70
2023-03-29T15:34:28.136Z,10.80
2023-03-29T15:39:30.354Z,10.90
2023-03-29T15:41:59.134Z,10.70
2023-03-29T15:44:32.220Z,10.70
2023-03-29T15:57:01.788Z,10.60
2023-03-29T15:59:31.995Z,10.60
2023-03-29T16:06:58.174Z,10.50
2023-03-29T16:14:27.503Z,10.60
2023-03-29T16:16:58.928Z,10.80
2023-03-29T16:19:28.604Z,10.50
2023-03-29T16:21:58.685Z,10.80
2023-03-29T16:24:33.212Z,10.40
2023-03-29T16:27:03.010Z,10.30
2023-03-29T17:31:25.086Z,7.50
2023-03-29T17:43:51.202Z,7.50
2023-03-29T17:46:22.959Z,7.50
2023-03-29T17:51:21.105Z,7.60
2023-03-29T18:01:20.262Z,7.80
2023-03-29T18:03:49.525Z,7.80
2023-03-29T18:11:22.987Z,7.80
2023-03-29T18:13:56.380Z,8.10
2023-03-29T18:16:24.416Z,7.90
2023-03-29T18:28:52.694Z,7.90
2023-03-29T18:31:21.341Z,8.30
2023-03-29T19:06:07.143Z,7.10
2023-03-29T19:08:37.776Z,7.70
2023-03-29T19:11:07.749Z,7.10
2023-03-29T19:13:36.429Z,7.10
2023-03-29T19:21:02.650Z,7.50
2023-03-29T19:23:30.889Z,7.00
2023-03-29T19:26:02.760Z,7.00
2023-03-29T19:31:00.903Z,6.90
2023-03-29T19:45:51.401Z,7.10
2023-03-29T20:25:35.796Z,6.70
2023-03-29T20:28:04.922Z,6.80
2023-03-29T20:50:28.376Z,7.30
2023-03-29T20:52:57.473Z,7.70
2023-03-29T20:57:59.942Z,7.40
2023-03-29T21:00:29.094Z,7.40
2023-03-29T21:05:29.866Z,7.30
2023-03-29T21:10:27.890Z,7.30
2023-03-29T21:13:00.624Z,7.30
2023-03-29T21:15:31.182Z,7.30
2023-03-29T21:57:27.193Z,6.90
2023-03-29T22:22:14.507Z,7.10
2023-03-29T22:27:11.930Z,7.00
2023-03-29T23:46:18.990Z,6.70
2023-03-29T23:48:49.216Z,6.60
2023-03-29T23:53:56.919Z,6.60
